Time;durP1;ratioP1;P1;durP2;ratioP2;P2;SDS_P1;SDS_P2;PMS_P1;PMS_P2;Temp;Humidity;BMP_temperature;BMP_pressure;BME280_temperature;BME280_humidity;BME280_pressure;Samples;Min_cycle;Max_cycle;Signal;HPM_P1;HPM_P2
2023/12/25 00:00:42;;;;;;;0.07;0.00;;;;;;;11.85;82.39;94991.44;4400683;32;20200;-61
2023/12/25 00:03:08;;;;;;;0.00;0.00;;;;;;;11.89;82.44;95001.16;4405881;32;20207;-61
2023/12/25 00:05:34;;;;;;;0.00;0.00;;;;;;;11.88;82.23;95009.44;4395369;32;20196;-61
2023/12/25 00:08:00;;;;;;;0.10;0.10;;;;;;;11.84;82.17;95003.19;4390150;32;20296;-62
2023/12/25 00:10:26;;;;;;;0.00;0.00;;;;;;;11.85;82.17;95012.72;4393534;32;20203;-61
2023/12/25 00:12:53;;;;;;;0.10;0.10;;;;;;;11.85;81.62;95000.19;4360501;32;20205;-61
2023/12/25 00:15:19;;;;;;;0.23;0.23;;;;;;;11.86;82.12;94990.34;4401266;32;20188;-61
2023/12/25 00:17:46;;;;;;;0.00;0.00;;;;;;;11.82;81.64;94986.78;4398801;32;20303;-62
2023/12/25 00:20:13;;;;;;;0.00;0.00;;;;;;;11.85;81.23;94999.41;4406725;32;20196;-61
2023/12/25 00:22:41;;;;;;;0.07;0.07;;;;;;;11.83;81.32;94989.12;4385871;32;20255;-61
2023/12/25 00:25:09;;;;;;;0.10;0.10;;;;;;;11.88;81.73;94988.16;4393833;32;20206;-61
2023/12/25 00:27:37;;;;;;;0.00;0.00;;;;;;;11.91;80.22;95008.81;4386882;32;20251;-62
2023/12/25 00:30:05;;;;;;;0.00;0.00;;;;;;;11.92;80.28;95005.06;4397876;32;20223;-63
2023/12/25 00:32:31;;;;;;;0.00;0.00;;;;;;;11.91;80.12;94993.66;4407630;32;20212;-61
2023/12/25 00:34:56;;;;;;;0.00;0.00;;;;;;;11.93;79.77;94980.06;4396833;32;20180;-61
2023/12/25 00:37:23;;;;;;;0.10;0.10;;;;;;;11.90;80.02;94993.97;4387257;32;20287;-61
2023/12/25 00:39:50;;;;;;;0.00;0.00;;;;;;;11.91;79.63;94984.91;4366790;32;20257;-61
2023/12/25 00:42:19;;;;;;;0.00;0.00;;;;;;;11.97;78.75;94989.00;4389163;32;20253;-61
2023/12/25 00:44:44;;;;;;;0.00;0.00;;;;;;;11.95;78.75;94967.25;4381676;32;20239;-61
2023/12/25 00:47:09;;;;;;;0.00;0.00;;;;;;;12.03;78.04;94987.75;4394261;32;20259;-61
2023/12/25 00:49:34;;;;;;;0.07;0.07;;;;;;;11.99;77.32;94979.63;4394234;32;20227;-61
2023/12/25 00:52:01;;;;;;;0.00;0.00;;;;;;;11.91;77.98;95006.16;4382825;32;20193;-61
2023/12/25 00:54:31;;;;;;;0.00;0.00;;;;;;;11.96;76.93;95001.50;4368004;32;20206;-62
2023/12/25 00:56:58;;;;;;;0.10;0.10;;;;;;;12.02;76.31;94988.84;4374563;32;20238;-61
2023/12/25 00:59:26;;;;;;;0.10;0.10;;;;;;;12.04;76.04;94992.78;4382505;32;20264;-61
2023/12/25 01:01:52;;;;;;;0.00;0.00;;;;;;;11.93;77.25;95002.09;4379055;32;20234;-61
2023/12/25 01:04:18;;;;;;;0.00;0.00;;;;;;;11.91;76.70;95011.47;4384280;32;20237;-61
2023/12/25 01:06:45;;;;;;;0.00;0.00;;;;;;;11.91;76.78;94995.53;4380003;32;20207;-62
2023/12/25 01:09:12;;;;;;;0.00;0.00;;;;;;;11.93;76.25;95022.59;4399813;32;20245;-61
2023/12/25 01:11:43;;;;;;;0.00;0.00;;;;;;;11.94;75.64;95029.47;4402696;32;20188;-61
2023/12/25 01:14:09;;;;;;;0.03;0.03;;;;;;;11.95;75.64;95017.75;4378446;32;20196;-61
2023/12/25 01:16:35;;;;;;;0.10;0.10;;;;;;;11.87;75.96;95008.66;4391506;32;20206;-61
2023/12/25 01:19:00;;;;;;;0.00;0.00;;;;;;;11.87;76.48;95018.50;4394126;32;20264;-61
2023/12/25 01:21:27;;;;;;;0.00;0.00;;;;;;;11.86;75.88;95028.34;4389254;32;20274;-62
2023/12/25 01:23:53;;;;;;;0.00;0.00;;;;;;;11.80;75.66;95031.47;4397159;32;21649;-61
2023/12/25 01:26:20;;;;;;;0.63;0.33;;;;;;;11.78;75.84;95023.81;4406033;32;20210;-61
2023/12/25 01:28:46;;;;;;;0.00;0.00;;;;;;;11.78;75.04;95036.31;4398712;32;20222;-61
2023/12/25 01:31:13;;;;;;;0.00;0.00;;;;;;;11.74;74.98;95040.63;4402489;32;20181;-62
2023/12/25 01:33:39;;;;;;;0.13;0.10;;;;;;;11.70;74.76;95043.91;4390280;32;20196;-61
2023/12/25 01:36:05;;;;;;;0.00;0.00;;;;;;;11.76;74.24;95049.09;4389259;32;20188;-61
2023/12/25 01:38:32;;;;;;;0.00;0.00;;;;;;;11.76;74.41;95043.78;4404764;32;20255;-61
2023/12/25 01:40:57;;;;;;;0.00;0.00;;;;;;;11.75;74.29;95037.69;4393941;32;20196;-61
2023/12/25 01:43:24;;;;;;;0.07;0.07;;;;;;;11.78;74.61;95046.94;4386867;32;20327;-61
2023/12/25 01:45:49;;;;;;;0.00;0.00;;;;;;;11.77;73.98;95032.88;4384475;32;20241;-61
2023/12/25 01:48:16;;;;;;;0.10;0.10;;;;;;;11.75;73.64;95036.88;4382196;32;20212;-61
2023/12/25 01:50:43;;;;;;;0.00;0.00;;;;;;;11.71;73.71;95031.41;4357139;32;20197;-62
2023/12/25 01:53:08;;;;;;;0.03;0.03;;;;;;;11.76;73.66;95044.59;4380027;32;20199;-63
2023/12/25 01:55:36;;;;;;;0.10;0.10;;;;;;;11.73;73.16;95037.19;4398121;32;20217;-62
2023/12/25 01:58:04;;;;;;;0.00;0.00;;;;;;;11.78;72.57;95034.44;4360129;32;20267;-62
2023/12/25 02:00:29;;;;;;;0.00;0.00;;;;;;;11.83;72.32;95029.00;4384014;32;20279;-61
2023/12/25 02:02:56;;;;;;;0.00;0.00;;;;;;;11.75;73.29;95026.25;4385356;32;20206;-61
2023/12/25 02:05:22;;;;;;;0.00;0.00;;;;;;;11.81;70.70;95044.47;4380377;32;20221;-61
2023/12/25 02:07:53;;;;;;;0.00;0.00;;;;;;;11.74;71.68;95028.12;4394986;32;20231;-61
2023/12/25 02:10:29;;;;;;;0.00;0.00;;;;;;;11.76;72.19;95057.06;4391794;32;20215;-62
2023/12/25 02:12:57;;;;;;;0.00;0.00;;;;;;;11.70;71.33;95035.16;4361625;32;20263;-61
2023/12/25 02:15:24;;;;;;;0.00;0.00;;;;;;;11.78;70.87;95033.66;4389521;32;21887;-62
2023/12/25 02:18:01;;;;;;;0.00;0.00;;;;;;;11.71;70.58;95048.13;4366307;32;20201;-61
2023/12/25 02:20:28;;;;;;;0.13;0.13;;;;;;;11.75;70.95;95032.34;4367745;32;20192;-62
2023/12/25 02:22:59;;;;;;;0.00;0.00;;;;;;;11.75;69.90;95044.88;4380799;32;20214;-60
2023/12/25 02:25:56;;;;;;;0.00;0.00;;;;;;;11.76;69.37;95046.44;4389485;32;20447;-60
2023/12/25 02:28:25;;;;;;;0.00;0.00;;;;;;;11.82;58.36;95038.06;4389587;32;20255;-60
2023/12/25 02:30:53;;;;;;;0.00;0.00;;;;;;;11.76;58.95;95033.16;4381898;32;20200;-61
2023/12/25 02:33:18;;;;;;;0.03;0.00;;;;;;;11.79;58.33;95037.88;4390990;32;20192;-60
2023/12/25 02:35:44;;;;;;;0.00;0.00;;;;;;;11.81;57.08;95038.34;4370385;32;20245;-60
2023/12/25 02:38:09;;;;;;;0.00;0.00;;;;;;;11.87;56.52;95031.78;4381965;32;20231;-60
2023/12/25 02:40:41;;;;;;;0.33;0.20;;;;;;;11.76;57.20;95033.97;4376899;32;20285;-61
2023/12/25 02:43:11;;;;;;;0.00;0.00;;;;;;;11.87;56.00;95034.44;4380517;32;20217;-60
2023/12/25 02:45:41;;;;;;;0.00;0.00;;;;;;;11.89;55.09;95038.38;4397699;32;20256;-60
2023/12/25 02:48:06;;;;;;;0.10;0.10;;;;;;;11.87;55.38;95040.53;4395565;32;20212;-60
2023/12/25 02:50:33;;;;;;;0.00;0.00;;;;;;;11.87;54.42;95045.09;4403688;32;20242;-61
2023/12/25 02:52:59;;;;;;;0.10;0.10;;;;;;;11.87;55.52;95055.72;4395443;32;20223;-61
2023/12/25 02:55:27;;;;;;;0.10;0.10;;;;;;;11.83;54.79;95044.16;4395651;32;20191;-60
2023/12/25 02:57:53;;;;;;;0.10;0.10;;;;;;;11.84;55.11;95037.75;4409271;32;20263;-61
2023/12/25 03:00:21;;;;;;;0.00;0.00;;;;;;;11.77;55.87;95029.44;4384581;32;20196;-61
2023/12/25 03:02:47;;;;;;;0.00;0.00;;;;;;;11.75;54.94;95039.53;4402130;32;20206;-60
2023/12/25 03:05:13;;;;;;;0.10;0.10;;;;;;;11.71;54.52;95029.53;4400819;32;20187;-60
2023/12/25 03:07:39;;;;;;;0.10;0.10;;;;;;;11.76;54.37;95041.13;4404237;32;20199;-60
2023/12/25 03:10:06;;;;;;;0.00;0.00;;;;;;;11.79;53.99;95027.25;4390610;32;20204;-61
2023/12/25 03:12:32;;;;;;;0.00;0.00;;;;;;;11.83;53.33;95029.00;4387045;32;20210;-60
2023/12/25 03:14:59;;;;;;;0.07;0.07;;;;;;;11.77;53.65;95034.75;4374780;32;20195;-60
2023/12/25 03:17:25;;;;;;;0.20;0.20;;;;;;;11.75;53.76;95020.94;4403552;32;20267;-60
2023/12/25 03:19:52;;;;;;;0.00;0.00;;;;;;;11.86;53.40;95027.56;4406703;32;20210;-60
2023/12/25 03:22:18;;;;;;;0.00;0.00;;;;;;;11.79;54.20;95027.25;4406144;32;20187;-60
2023/12/25 03:24:45;;;;;;;0.00;0.00;;;;;;;11.78;53.18;95023.81;4390616;32;20208;-60
2023/12/25 03:27:12;;;;;;;0.00;0.00;;;;;;;11.81;53.07;95028.50;4385415;32;20245;-60
2023/12/25 03:29:38;;;;;;;0.30;0.17;;;;;;;11.78;53.26;95041.63;4375945;32;20196;-61
2023/12/25 03:32:06;;;;;;;0.07;0.07;;;;;;;11.73;53.37;95053.13;4390610;32;20198;-60
2023/12/25 03:34:45;;;;;;;0.00;0.00;;;;;;;11.76;52.57;95043.78;4376147;32;20192;-61
2023/12/25 03:37:11;;;;;;;0.00;0.00;;;;;;;11.80;52.78;95031.47;4399357;32;20256;-60
2023/12/25 03:39:37;;;;;;;0.00;0.00;;;;;;;11.81;53.36;95030.38;4389325;32;20233;-60
2023/12/25 03:42:03;;;;;;;0.07;0.07;;;;;;;11.77;53.25;95034.75;4358872;32;20200;-61
2023/12/25 03:44:30;;;;;;;0.00;0.00;;;;;;;11.76;53.01;95038.47;4374325;32;20199;-61
2023/12/25 03:46:57;;;;;;;0.00;0.00;;;;;;;11.68;53.59;95042.62;4376966;32;20222;-61
2023/12/25 03:49:25;;;;;;;0.00;0.00;;;;;;;11.70;52.35;95046.56;4394269;32;20196;-61
2023/12/25 03:51:52;;;;;;;0.00;0.00;;;;;;;11.67;52.23;95052.47;4406517;32;20187;-61
2023/12/25 03:54:18;;;;;;;0.00;0.00;;;;;;;11.63;52.68;95046.25;4391680;32;20188;-61
2023/12/25 03:56:45;;;;;;;0.10;0.10;;;;;;;11.61;52.97;95043.09;4378002;32;20238;-61
2023/12/25 03:59:10;;;;;;;0.00;0.00;;;;;;;11.58;52.80;95053.56;4377998;32;20184;-61
2023/12/25 04:01:41;;;;;;;0.10;0.10;;;;;;;11.59;53.62;95050.59;4384533;32;20256;-61
2023/12/25 04:04:08;;;;;;;0.10;0.10;;;;;;;11.63;52.99;95040.13;4384287;32;20211;-60
2023/12/25 04:06:35;;;;;;;0.00;0.00;;;;;;;11.64;52.26;95045.13;4393026;32;20188;-62
2023/12/25 04:09:00;;;;;;;0.00;0.00;;;;;;;11.68;51.51;95042.62;4382033;32;20245;-61
2023/12/25 04:11:27;;;;;;;0.00;0.00;;;;;;;11.64;52.87;95041.69;4381783;32;20204;-61
2023/12/25 04:13:53;;;;;;;0.00;0.00;;;;;;;11.69;52.37;95029.06;4404317;32;20219;-61
2023/12/25 04:16:26;;;;;;;0.00;0.00;;;;;;;11.76;52.77;95049.09;4394418;32;20211;-61
2023/12/25 04:18:53;;;;;;;0.07;0.07;;;;;;;11.71;51.83;95034.84;4395715;32;20226;-60
2023/12/25 04:21:31;;;;;;;0.00;0.00;;;;;;;11.68;52.29;95034.66;4390278;32;20200;-61
2023/12/25 04:24:01;;;;;;;0.00;0.00;;;;;;;11.70;51.49;95029.84;4376010;32;20230;-61
2023/12/25 04:26:28;;;;;;;0.10;0.10;;;;;;;11.65;52.26;95035.28;4399460;32;20234;-61
2023/12/25 04:28:55;;;;;;;0.10;0.10;;;;;;;11.66;51.90;95037.63;4381540;32;22255;-61
2023/12/25 04:31:22;;;;;;;0.10;0.10;;;;;;;11.63;51.79;95029.50;4404486;32;20208;-61
2023/12/25 04:33:48;;;;;;;0.07;0.07;;;;;;;11.65;50.98;95025.44;4391878;32;20208;-61
2023/12/25 04:36:13;;;;;;;0.00;0.00;;;;;;;11.69;50.72;95029.06;4380111;32;20212;-61
2023/12/25 04:38:40;;;;;;;0.00;0.00;;;;;;;11.69;51.46;95026.38;4396764;32;20185;-61
2023/12/25 04:41:07;;;;;;;0.20;0.20;;;;;;;11.69;51.37;95028.25;4399567;32;20308;-61
2023/12/25 04:43:34;;;;;;;0.20;0.20;;;;;;;11.69;51.65;95028.25;4406452;32;20248;-61
2023/12/25 04:46:04;;;;;;;0.00;0.00;;;;;;;11.67;51.32;95014.50;4395853;32;20225;-60
2023/12/25 04:48:30;;;;;;;0.00;0.00;;;;;;;11.67;51.29;95031.22;4364456;32;20224;-61
2023/12/25 04:50:56;;;;;;;0.10;0.10;;;;;;;11.68;51.35;95029.34;4396836;32;20223;-61
2023/12/25 04:53:23;;;;;;;0.00;0.00;;;;;;;11.71;51.98;95026.09;4375711;32;20195;-61
2023/12/25 04:55:49;;;;;;;0.00;0.00;;;;;;;11.65;51.81;95028.09;4391763;32;20204;-61
2023/12/25 04:58:16;;;;;;;0.10;0.10;;;;;;;11.61;51.73;95023.72;4393741;32;20299;-62
2023/12/25 05:00:43;;;;;;;0.00;0.00;;;;;;;11.74;51.17;95025.47;4399090;32;20260;-61
2023/12/25 05:03:10;;;;;;;0.20;0.20;;;;;;;11.69;51.65;95036.25;4406433;32;20236;-61
2023/12/25 05:05:35;;;;;;;0.43;0.43;;;;;;;11.82;51.78;95040.72;4404705;32;20206;-62
2023/12/25 05:08:01;;;;;;;0.00;0.00;;;;;;;11.85;51.61;95037.41;4406145;32;20280;-61
2023/12/25 05:10:27;;;;;;;0.00;0.00;;;;;;;11.94;51.72;95042.78;4404127;32;20316;-61
2023/12/25 05:12:54;;;;;;;0.00;0.00;;;;;;;11.81;51.33;95047.13;4402716;32;20225;-61
2023/12/25 05:15:20;;;;;;;0.00;0.00;;;;;;;11.82;51.70;95048.69;4393895;32;20215;-61
2023/12/25 05:17:47;;;;;;;0.00;0.00;;;;;;;11.85;51.45;95041.94;4397872;32;20196;-61
2023/12/25 05:20:14;;;;;;;0.00;0.00;;;;;;;11.87;51.83;95045.09;4397743;32;20191;-61
2023/12/25 05:22:43;;;;;;;0.10;0.10;;;;;;;11.74;52.18;95062.69;4400185;32;20230;-60
2023/12/25 05:25:10;;;;;;;0.10;0.10;;;;;;;11.81;52.06;95052.44;4389122;32;20208;-61
2023/12/25 05:27:39;;;;;;;0.10;0.10;;;;;;;11.74;52.14;95057.38;4391282;32;20196;-61
2023/12/25 05:30:08;;;;;;;0.00;0.00;;;;;;;11.68;53.11;95054.06;4398997;32;20217;-61
2023/12/25 05:32:35;;;;;;;0.00;0.00;;;;;;;11.79;52.71;95059.12;4391127;32;20187;-61
2023/12/25 05:35:14;;;;;;;0.10;0.10;;;;;;;11.70;52.41;95062.50;4392490;32;20224;-61
2023/12/25 05:37:42;;;;;;;0.10;0.10;;;;;;;11.72;54.05;95059.53;4411750;32;20264;-61
2023/12/25 05:40:08;;;;;;;0.00;0.00;;;;;;;11.67;54.41;95060.47;4399592;32;20199;-61
2023/12/25 05:42:36;;;;;;;0.13;0.13;;;;;;;11.67;54.23;95062.31;4401433;32;20297;-61
2023/12/25 05:45:02;;;;;;;0.13;0.13;;;;;;;11.74;54.59;95062.69;4388682;32;20196;-61
2023/12/25 05:47:27;;;;;;;0.00;0.00;;;;;;;11.74;55.17;95069.87;4393975;32;20294;-61
2023/12/25 05:49:53;;;;;;;0.10;0.10;;;;;;;11.77;54.97;95071.94;4393916;32;20250;-61
2023/12/25 05:52:22;;;;;;;0.10;0.10;;;;;;;11.82;55.73;95063.84;4405585;32;20246;-61
2023/12/25 05:54:52;;;;;;;0.00;0.00;;;;;;;11.77;56.28;95069.28;4394712;32;20269;-61
2023/12/25 05:57:19;;;;;;;0.03;0.03;;;;;;;11.78;57.09;95045.06;4393558;32;20218;-61
2023/12/25 05:59:44;;;;;;;0.73;0.30;;;;;;;11.69;57.43;95060.94;4389290;32;20253;-61
2023/12/25 06:02:15;;;;;;;2.50;0.40;;;;;;;11.67;56.36;95059.66;4398305;32;20196;-61
2023/12/25 06:04:41;;;;;;;0.00;0.00;;;;;;;11.68;56.67;95062.03;4388040;32;20200;-61
2023/12/25 06:07:06;;;;;;;0.00;0.00;;;;;;;11.79;54.98;95049.28;4402819;32;20195;-61
2023/12/25 06:09:33;;;;;;;0.00;0.00;;;;;;;11.69;54.73;95068.13;4374651;32;20286;-61
2023/12/25 06:12:00;;;;;;;0.00;0.00;;;;;;;11.67;54.99;95070.28;4370897;32;20200;-61
2023/12/25 06:14:26;;;;;;;0.10;0.10;;;;;;;11.76;53.93;95078.31;4398498;32;20180;-61
2023/12/25 06:16:52;;;;;;;0.03;0.03;;;;;;;11.69;53.58;95068.91;4404004;32;20258;-61
2023/12/25 06:19:17;;;;;;;0.00;0.00;;;;;;;11.66;53.96;95066.84;4403711;32;20203;-61
2023/12/25 06:21:42;;;;;;;0.10;0.10;;;;;;;11.63;52.24;95061.41;4396945;32;20230;-61
2023/12/25 06:24:09;;;;;;;0.00;0.00;;;;;;;11.52;51.93;95070.69;4410406;32;20200;-61
2023/12/25 06:26:35;;;;;;;0.00;0.00;;;;;;;11.70;51.12;95062.50;4394702;32;20197;-62
2023/12/25 06:29:04;;;;;;;0.00;0.00;;;;;;;11.64;50.50;95045.13;4396221;32;20238;-60
2023/12/25 06:31:31;;;;;;;0.10;0.10;;;;;;;11.55;49.60;95052.28;4401858;32;20197;-61
2023/12/25 06:34:01;;;;;;;0.20;0.20;;;;;;;11.45;50.22;95055.19;4389364;32;20233;-61
2023/12/25 06:36:27;;;;;;;0.07;0.07;;;;;;;11.42;49.98;95055.81;4373507;32;20210;-61
2023/12/25 06:38:53;;;;;;;0.00;0.00;;;;;;;11.39;50.02;95053.78;4396949;32;20242;-60
2023/12/25 06:41:20;;;;;;;0.20;0.20;;;;;;;11.33;49.27;95060.28;4409523;32;20184;-61
2023/12/25 06:43:47;;;;;;;0.00;0.00;;;;;;;11.33;49.31;95057.62;4392034;32;20272;-61
2023/12/25 06:46:13;;;;;;;0.10;0.10;;;;;;;11.35;48.52;95071.41;4392345;32;20279;-61
2023/12/25 06:48:39;;;;;;;0.03;0.03;;;;;;;11.32;49.16;95074.66;4397283;32;20206;-62
2023/12/25 06:51:08;;;;;;;0.00;0.00;;;;;;;11.45;48.86;95076.44;4387907;32;20229;-60
2023/12/25 06:53:33;;;;;;;0.00;0.00;;;;;;;11.35;48.45;95072.19;4403875;32;20227;-61
2023/12/25 06:55:59;;;;;;;0.00;0.00;;;;;;;11.27;48.58;95083.53;4391825;32;20188;-61
2023/12/25 06:58:25;;;;;;;0.10;0.10;;;;;;;11.27;48.18;95077.44;4386858;32;20210;-61
2023/12/25 07:00:50;;;;;;;0.00;0.00;;;;;;;11.29;48.74;95084.00;4410479;32;20215;-61
2023/12/25 07:03:16;;;;;;;0.00;0.00;;;;;;;11.27;48.48;95088.06;4404951;32;20177;-61
2023/12/25 07:05:42;;;;;;;0.00;0.00;;;;;;;11.24;47.66;95092.09;4397730;32;20193;-61
2023/12/25 07:08:08;;;;;;;0.00;0.00;;;;;;;11.23;48.21;95093.19;4397278;32;20222;-61
2023/12/25 07:10:33;;;;;;;0.17;0.17;;;;;;;11.14;48.23;95095.00;4389395;32;20254;-60
2023/12/25 07:12:58;;;;;;;0.10;0.10;;;;;;;11.22;47.78;95083.63;4405949;32;20257;-60
2023/12/25 07:15:25;;;;;;;0.00;0.00;;;;;;;11.15;48.01;95071.91;4386742;32;20200;-60
2023/12/25 07:17:51;;;;;;;0.30;0.30;;;;;;;10.99;48.53;95079.44;4397649;32;20196;-60
2023/12/25 07:20:17;;;;;;;0.00;0.00;;;;;;;10.94;48.43;95085.66;4370969;32;20215;-61
2023/12/25 07:22:44;;;;;;;0.30;0.30;;;;;;;10.93;48.60;95086.72;4392358;32;20191;-61
2023/12/25 07:25:10;;;;;;;0.20;0.20;;;;;;;10.96;48.83;95085.34;4388447;32;20196;-61
2023/12/25 07:27:36;;;;;;;0.00;0.00;;;;;;;10.93;48.77;95086.72;4407899;32;20199;-62
2023/12/25 07:30:05;;;;;;;0.00;0.00;;;;;;;10.88;48.78;95078.09;4398948;32;20237;-61
2023/12/25 07:32:30;;;;;;;0.03;0.00;;;;;;;10.84;48.48;95077.91;4383489;32;20180;-61
2023/12/25 07:34:57;;;;;;;0.17;0.17;;;;;;;10.81;47.79;95078.50;4393052;32;20259;-61
2023/12/25 07:37:23;;;;;;;5.73;0.20;;;;;;;10.85;47.08;95084.78;4393081;32;20214;-61
2023/12/25 07:39:50;;;;;;;0.10;0.10;;;;;;;10.78;47.42;95081.00;4389326;32;20200;-61
2023/12/25 07:42:15;;;;;;;0.00;0.00;;;;;;;10.78;47.98;95084.44;4390230;32;20200;-61
2023/12/25 07:44:42;;;;;;;0.00;0.00;;;;;;;10.80;47.96;95087.56;4399824;32;20223;-61
2023/12/25 07:47:07;;;;;;;4.33;0.20;;;;;;;10.86;47.72;95090.88;4393782;32;20197;-61
2023/12/25 07:49:34;;;;;;;0.20;0.20;;;;;;;10.84;47.98;95101.00;4400656;32;20202;-61
2023/12/25 07:52:01;;;;;;;0.77;0.53;;;;;;;10.80;47.55;95102.72;4388137;32;20258;-61
2023/12/25 07:54:28;;;;;;;0.23;0.17;;;;;;;10.76;47.42;95113.13;4374353;32;20213;-61
2023/12/25 07:56:54;;;;;;;0.00;0.00;;;;;;;10.72;48.02;95122.78;4383815;32;20211;-61
2023/12/25 07:59:21;;;;;;;0.23;0.23;;;;;;;10.80;47.89;95122.06;4377031;32;20209;-61
2023/12/25 08:01:47;;;;;;;0.03;0.03;;;;;;;10.71;48.48;95123.84;4326530;32;20212;-61
2023/12/25 08:04:13;;;;;;;0.30;0.30;;;;;;;10.68;49.25;95135.06;4365112;32;20193;-61
2023/12/25 08:06:39;;;;;;;0.00;0.00;;;;;;;10.68;48.98;95127.09;4376376;32;20212;-60
2023/12/25 08:09:05;;;;;;;0.20;0.20;;;;;;;10.76;49.40;95129.06;4401536;32;20222;-61
2023/12/25 08:11:32;;;;;;;0.17;0.17;;;;;;;10.74;49.52;95133.09;4403516;32;20247;-61
2023/12/25 08:13:57;;;;;;;0.20;0.20;;;;;;;10.72;49.76;95130.72;4410678;32;20321;-61
2023/12/25 08:16:26;;;;;;;0.00;0.00;;;;;;;10.73;50.03;95129.66;4397322;32;20215;-61
2023/12/25 08:18:54;;;;;;;0.10;0.10;;;;;;;10.71;50.74;95150.38;4345436;32;20260;-61
2023/12/25 08:21:23;;;;;;;0.33;0.33;;;;;;;10.78;50.25;95134.06;4360740;32;20184;-61
2023/12/25 08:23:50;;;;;;;0.00;0.00;;;;;;;10.73;50.73;95142.91;4378003;32;20216;-61
2023/12/25 08:26:16;;;;;;;0.17;0.17;;;;;;;10.64;50.92;95148.13;4403746;32;20248;-61
2023/12/25 08:28:42;;;;;;;0.07;0.07;;;;;;;10.66;51.24;95145.19;4388469;32;20199;-61
2023/12/25 08:31:07;;;;;;;0.00;0.00;;;;;;;10.62;51.79;95149.50;4379743;32;20234;-61
2023/12/25 08:33:35;;;;;;;0.37;0.37;;;;;;;10.71;51.25;95154.91;4400293;32;20211;-60
2023/12/25 08:36:01;;;;;;;0.27;0.27;;;;;;;10.58;51.23;95159.94;4400626;32;20215;-61
2023/12/25 08:38:26;;;;;;;0.20;0.20;;;;;;;10.53;52.59;95161.91;4369635;32;20325;-61
2023/12/25 08:40:54;;;;;;;1.50;0.13;;;;;;;10.63;50.71;95157.16;4380727;32;20247;-61
2023/12/25 08:43:21;;;;;;;0.27;0.27;;;;;;;10.51;51.62;95164.84;4394332;32;20188;-61
2023/12/25 08:45:47;;;;;;;0.10;0.10;;;;;;;10.56;51.41;95161.31;4381342;32;20247;-61
2023/12/25 08:48:15;;;;;;;0.20;0.20;;;;;;;10.52;51.29;95160.34;4380096;32;20206;-61
2023/12/25 08:50:47;;;;;;;0.03;0.03;;;;;;;10.53;51.95;95161.91;4381096;32;20216;-62
2023/12/25 08:53:12;;;;;;;1.50;0.43;;;;;;;10.52;51.04;95155.03;4381906;32;20206;-61
2023/12/25 08:55:38;;;;;;;0.20;0.20;;;;;;;10.55;50.46;95162.41;4395215;32;20196;-61
2023/12/25 08:58:04;;;;;;;0.00;0.00;;;;;;;10.48;50.27;95169.97;4403456;32;20215;-61
2023/12/25 09:00:30;;;;;;;0.00;0.00;;;;;;;10.54;50.98;95174.09;4370393;32;20308;-61
2023/12/25 09:02:55;;;;;;;0.83;0.23;;;;;;;10.53;50.62;95175.16;4392809;32;20236;-62
2023/12/25 09:05:21;;;;;;;0.10;0.10;;;;;;;10.49;51.76;95176.84;4372666;32;20188;-61
2023/12/25 09:07:47;;;;;;;0.00;0.00;;;;;;;10.54;51.16;95192.66;4366466;32;20208;-61
2023/12/25 09:10:13;;;;;;;0.20;0.20;;;;;;;10.60;49.29;95186.94;4367022;32;20200;-61
2023/12/25 09:12:39;;;;;;;0.37;0.37;;;;;;;10.53;51.12;95186.56;4367436;32;20177;-61
2023/12/25 09:15:08;;;;;;;0.00;0.00;;;;;;;10.53;50.40;95181.25;4399844;32;20196;-61
2023/12/25 09:17:35;;;;;;;0.00;0.00;;;;;;;10.48;49.18;95185.88;4402096;32;20188;-61
2023/12/25 09:20:02;;;;;;;0.20;0.13;;;;;;;10.50;49.54;95175.75;4396616;32;20199;-61
2023/12/25 09:22:28;;;;;;;0.10;0.10;;;;;;;10.50;49.72;95178.41;4393166;32;20207;-61
2023/12/25 09:24:55;;;;;;;0.10;0.10;;;;;;;10.54;48.96;95195.31;4371673;32;20185;-61
2023/12/25 09:27:20;;;;;;;0.10;0.10;;;;;;;10.64;47.85;95184.47;4387862;32;20191;-61
2023/12/25 09:29:47;;;;;;;0.10;0.10;;;;;;;10.63;48.82;95196.16;4395602;32;20250;-61
2023/12/25 09:32:13;;;;;;;0.10;0.10;;;;;;;10.70;46.54;95199.22;4409129;32;20188;-61
2023/12/25 09:34:39;;;;;;;0.10;0.10;;;;;;;10.76;47.33;95195.38;4388234;32;20207;-61
2023/12/25 09:37:05;;;;;;;0.10;0.10;;;;;;;10.85;45.16;95198.91;4389413;32;20247;-61
2023/12/25 09:39:32;;;;;;;0.10;0.10;;;;;;;10.99;44.70;95191.72;4384511;32;20188;-61
2023/12/25 09:41:58;;;;;;;0.20;0.10;;;;;;;11.11;45.71;95191.19;4370751;32;20211;-61
2023/12/25 09:44:28;;;;;;;0.13;0.13;;;;;;;11.23;44.10;95185.31;4361429;32;20262;-60
2023/12/25 09:46:57;;;;;;;0.20;0.20;;;;;;;11.31;42.79;95203.22;4399424;32;20175;-61
2023/12/25 09:49:25;;;;;;;0.17;0.17;;;;;;;11.43;42.31;95179.53;4400068;32;20241;-60
2023/12/25 09:51:55;;;;;;;0.20;0.20;;;;;;;11.45;42.06;95197.84;4379897;32;20222;-61
2023/12/25 09:54:22;;;;;;;0.00;0.00;;;;;;;11.52;41.84;95193.69;4371870;32;20196;-61
2023/12/25 09:56:49;;;;;;;0.00;0.00;;;;;;;11.61;41.07;95186.56;4372639;32;20211;-61
2023/12/25 09:59:16;;;;;;;0.00;0.00;;;;;;;11.72;41.24;95192.41;4369086;32;20215;-60
2023/12/25 10:01:56;;;;;;;0.00;0.00;;;;;;;11.76;40.37;95174.00;4389715;32;20204;-61
2023/12/25 10:04:22;;;;;;;0.00;0.00;;;;;;;11.80;39.54;95182.97;4395418;32;20184;-61
2023/12/25 10:06:52;;;;;;;0.10;0.10;;;;;;;11.81;40.06;95180.00;4343851;32;20203;-61
2023/12/25 10:09:18;;;;;;;0.00;0.00;;;;;;;11.82;41.79;95181.56;4391386;32;20211;-61
2023/12/25 10:11:45;;;;;;;0.10;0.10;;;;;;;11.88;41.11;95168.91;4392878;32;20206;-61
2023/12/25 10:14:10;;;;;;;0.00;0.00;;;;;;;11.94;38.91;95170.38;4395085;32;20307;-61
2023/12/25 10:16:38;;;;;;;0.00;0.00;;;;;;;11.92;39.79;95153.94;4380435;32;20215;-62
2023/12/25 10:19:05;;;;;;;0.00;0.00;;;;;;;11.99;38.85;95192.31;4369243;32;20255;-61
2023/12/25 10:21:42;;;;;;;0.00;0.00;;;;;;;12.10;38.88;95160.13;4393665;32;20189;-61
2023/12/25 10:24:15;;;;;;;0.10;0.10;;;;;;;12.09;39.77;95162.00;4379146;32;20188;-61
2023/12/25 10:26:45;;;;;;;0.83;0.20;;;;;;;12.10;40.04;95150.25;4378406;32;20230;-62
2023/12/25 10:29:14;;;;;;;0.93;0.27;;;;;;;12.14;38.53;95145.91;4355927;32;20200;-61
2023/12/25 10:31:47;;;;;;;0.07;0.07;;;;;;;12.21;38.95;95154.22;4380255;32;20188;-61
2023/12/25 10:34:19;;;;;;;0.00;0.00;;;;;;;12.21;38.80;95140.94;4393326;32;20195;-61
2023/12/25 10:36:49;;;;;;;0.63;0.63;;;;;;;12.22;39.81;95147.81;4372673;32;20275;-61
2023/12/25 10:39:29;;;;;;;0.20;0.20;;;;;;;12.25;39.13;95152.53;4379347;32;20188;-61
2023/12/25 10:41:56;;;;;;;0.00;0.00;;;;;;;12.18;39.91;95144.22;4376730;32;20205;-61
2023/12/25 10:44:23;;;;;;;0.00;0.00;;;;;;;12.20;38.33;95149.22;4388491;32;20257;-62
2023/12/25 10:46:49;;;;;;;0.00;0.00;;;;;;;12.32;38.40;95150.19;4394193;32;20213;-61
2023/12/25 10:49:16;;;;;;;0.03;0.03;;;;;;;12.24;38.75;95137.66;4369795;32;20201;-62
2023/12/25 10:51:46;;;;;;;0.30;0.30;;;;;;;12.24;38.86;95139.53;4380571;32;20219;-61
2023/12/25 10:54:12;;;;;;;0.10;0.10;;;;;;;12.32;38.14;95138.78;4380523;32;20258;-61
2023/12/25 10:56:43;;;;;;;0.10;0.10;;;;;;;12.41;36.96;95125.50;4373976;32;20257;-62
2023/12/25 10:59:11;;;;;;;0.20;0.20;;;;;;;12.44;36.79;95127.56;4364730;32;20245;-61
2023/12/25 11:01:39;;;;;;;0.00;0.00;;;;;;;12.47;37.70;95132.25;4390956;32;20192;-63
2023/12/25 11:04:06;;;;;;;0.10;0.10;;;;;;;12.55;36.98;95123.50;4403822;32;20203;-61
2023/12/25 11:06:55;;;;;;;0.00;0.00;;;;;;;12.50;36.97;95127.06;4384445;32;20229;-61
2023/12/25 11:09:22;;;;;;;0.10;0.10;;;;;;;12.47;36.66;95140.25;4374656;32;20268;-61
2023/12/25 11:11:48;;;;;;;0.00;0.00;;;;;;;12.41;38.34;95138.81;4382093;32;20192;-61
2023/12/25 11:14:16;;;;;;;0.00;0.00;;;;;;;12.47;37.09;95151.63;4377570;32;20207;-61
2023/12/25 11:16:43;;;;;;;0.13;0.10;;;;;;;12.45;35.55;95134.44;4365665;32;20240;-62
2023/12/25 11:19:10;;;;;;;0.10;0.10;;;;;;;12.44;35.93;95140.84;4375326;32;20196;-62
2023/12/25 11:21:38;;;;;;;0.00;0.00;;;;;;;12.39;36.22;95131.13;4390607;32;20208;-61
2023/12/25 11:24:08;;;;;;;0.27;0.27;;;;;;;12.43;35.69;95124.09;4368840;32;20227;-61
2023/12/25 11:26:34;;;;;;;0.20;0.20;;;;;;;12.41;35.91;95130.81;4399256;32;20192;-61
2023/12/25 11:29:11;;;;;;;0.30;0.30;;;;;;;12.38;35.71;95125.03;4381448;32;20207;-61
2023/12/25 11:31:46;;;;;;;0.00;0.00;;;;;;;12.31;36.66;95137.97;4392344;32;20188;-62
2023/12/25 11:34:32;;;;;;;0.00;0.00;;;;;;;12.35;35.02;95130.97;4395704;32;20233;-61